createdAt,value
2019-01-09T00:00:37.704Z,148023.83
2019-01-09T00:01:44.230Z,148016.91
2019-01-09T00:02:50.582Z,148049.03
2019-01-09T00:03:56.593Z,148035.19
2019-01-09T00:05:02.972Z,148011.88
2019-01-09T00:06:09.049Z,148003.69
2019-01-09T00:07:15.442Z,147993.61
2019-01-09T00:08:21.456Z,148015.00
2019-01-09T00:09:27.795Z,148011.25
2019-01-09T00:10:34.206Z,147987.91
2019-01-09T00:11:40.231Z,148003.69
2019-01-09T00:12:46.617Z,148017.53
2019-01-09T00:13:52.659Z,148015.64
2019-01-09T00:14:59.083Z,148030.12
2019-01-09T00:16:05.508Z,148031.38
2019-01-09T00:17:12.537Z,148042.75
2019-01-09T00:18:18.971Z,148043.38
2019-01-09T00:19:25.004Z,148026.36
2019-01-09T00:20:31.038Z,148038.94
2019-01-09T00:21:37.442Z,148043.38
2019-01-09T00:22:43.248Z,148048.39
2019-01-09T00:23:49.253Z,148051.56
2019-01-09T00:24:55.252Z,148010.63
2019-01-09T00:26:02.254Z,148000.53
2019-01-09T00:27:08.225Z,147999.89
2019-01-09T00:28:14.588Z,148020.08
2019-01-09T00:29:20.594Z,148002.44
2019-01-09T00:30:26.710Z,148023.83
2019-01-09T00:31:33.175Z,148008.08
2019-01-09T00:32:39.537Z,147999.89
2019-01-09T00:33:45.546Z,148006.81
2019-01-09T00:34:51.907Z,148012.52
2019-01-09T00:35:58.357Z,148012.52
2019-01-09T00:37:04.038Z,147974.69
2019-01-09T00:38:10.947Z,147963.34
2019-01-09T00:39:18.114Z,147991.70
2019-01-09T00:40:24.129Z,147982.25
2019-01-09T00:41:30.489Z,147980.34
2019-01-09T00:42:37.049Z,148003.06
2019-01-09T00:43:43.045Z,147984.16
2019-01-09T00:44:48.680Z,147994.88
2019-01-09T00:45:54.684Z,147990.44
2019-01-09T00:47:00.716Z,147946.33
2019-01-09T00:48:06.774Z,147958.95
2019-01-09T00:49:12.872Z,147965.25
2019-01-09T00:50:18.549Z,147978.50
2019-01-09T00:51:24.288Z,147979.08
2019-01-09T00:52:30.616Z,147968.41
2019-01-09T00:53:36.304Z,147990.44
2019-01-09T00:54:41.995Z,147984.78
2019-01-09T00:55:47.667Z,147970.89
2019-01-09T00:56:53.303Z,147977.23
2019-01-09T00:57:59.307Z,147969.03
2019-01-09T00:59:04.981Z,147985.42
2019-01-09T01:00:11.523Z,147982.87
2019-01-09T01:01:17.196Z,147979.08
2019-01-09T01:02:33.657Z,147957.69
2019-01-09T01:04:02.663Z,147976.59
2019-01-09T01:06:52.161Z,147938.78
2019-01-09T01:10:01.298Z,147918.66
2019-01-09T01:11:36.537Z,147936.30
2019-01-09T01:14:31.156Z,147945.70
2019-01-09T01:15:46.481Z,147938.78
2019-01-09T01:16:53.798Z,147959.59
2019-01-09T01:18:05.315Z,147970.89
2019-01-09T01:20:45.879Z,147966.50
2019-01-09T01:21:51.764Z,147972.16
2019-01-09T01:24:45.260Z,147942.58
2019-01-09T01:25:55.504Z,147939.41
2019-01-09T01:27:05.862Z,147950.77
2019-01-09T01:30:11.479Z,147938.14
2019-01-09T01:31:51.441Z,147957.05
2019-01-09T01:33:25.343Z,147958.95
2019-01-09T01:34:57.958Z,147955.78
2019-01-09T01:36:10.350Z,147967.14
2019-01-09T01:37:23.578Z,147994.25
2019-01-09T01:38:33.786Z,147964.61
2019-01-09T01:39:47.387Z,147946.33
2019-01-09T01:40:56.187Z,147970.89
2019-01-09T01:42:04.518Z,147962.08
2019-01-09T01:43:13.014Z,147933.13
2019-01-09T01:44:24.636Z,147920.50
2019-01-09T01:47:18.179Z,147919.28
2019-01-09T01:48:44.549Z,147911.09
2019-01-09T01:49:53.003Z,147904.13
2019-01-09T01:51:19.081Z,147909.83
2019-01-09T01:52:39.442Z,147895.94
2019-01-09T01:53:46.804Z,147892.83
2019-01-09T01:54:58.568Z,147867.00
2019-01-09T01:56:22.876Z,147887.12
2019-01-09T01:59:09.684Z,147911.09
2019-01-09T02:00:18.564Z,147867.64
2019-01-09T02:01:30.818Z,147882.11
2019-01-09T02:02:36.503Z,147887.12
2019-01-09T02:05:19.612Z,147902.28
2019-01-09T02:08:15.236Z,147919.87
2019-01-09T02:11:19.895Z,147873.92
2019-01-09T02:12:40.657Z,147850.63
2019-01-09T02:13:51.940Z,147858.19
2019-01-09T02:16:55.163Z,147840.55
2019-01-09T02:18:14.091Z,147847.47
2019-01-09T02:19:20.555Z,147883.38
2019-01-09T02:20:32.067Z,147870.75
2019-01-09T02:21:42.025Z,147861.94
2019-01-09T02:24:45.500Z,147858.19
2019-01-09T02:26:08.422Z,147813.47
2019-01-09T02:27:24.719Z,147821.02
2019-01-09T02:28:37.836Z,147859.45
2019-01-09T02:29:54.279Z,147884.00
2019-01-09T02:32:35.459Z,147889.66
2019-01-09T02:33:41.855Z,147877.67
2019-01-09T02:34:48.256Z,147842.45
2019-01-09T02:35:56.440Z,147832.38
2019-01-09T02:37:02.847Z,147829.83
2019-01-09T02:38:09.178Z,147830.47
2019-01-09T02:39:15.550Z,147822.91
2019-01-09T02:40:22.045Z,147837.37
2019-01-09T02:41:28.413Z,147835.48
2019-01-09T02:42:34.735Z,147864.47
2019-01-09T02:43:41.139Z,147843.08
2019-01-09T02:44:47.491Z,147809.72
2019-01-09T02:45:54.101Z,147826.72
2019-01-09T02:47:01.249Z,147844.30
2019-01-09T02:48:07.621Z,147854.39
2019-01-09T02:49:13.944Z,147859.45
2019-01-09T02:50:20.316Z,147854.39
2019-01-09T02:51:26.676Z,147836.12
2019-01-09T02:52:33.047Z,147848.73
2019-01-09T02:53:39.043Z,147844.94
2019-01-09T02:54:45.453Z,147833.00
2019-01-09T02:55:51.896Z,147814.09
2019-01-09T02:56:58.298Z,147796.47
2019-01-09T02:58:03.906Z,147810.94
2019-01-09T02:59:10.201Z,147807.81
2019-01-09T03:00:16.628Z,147808.44
2019-01-09T03:01:22.977Z,147820.38
2019-01-09T03:02:29.398Z,147816.62
2019-01-09T03:03:35.738Z,147824.81
2019-01-09T03:04:42.084Z,147813.47
2019-01-09T03:05:48.541Z,147814.09
2019-01-09T03:06:55.839Z,147800.27
2019-01-09T03:08:02.941Z,147813.47
2019-01-09T03:09:10.801Z,147814.73
2019-01-09T03:10:18.711Z,147836.75
2019-01-09T03:11:25.058Z,147822.28
2019-01-09T03:12:31.418Z,147807.81
2019-01-09T03:13:37.822Z,147818.53
2019-01-09T03:14:44.216Z,147815.36
2019-01-09T03:15:50.663Z,147831.09
2019-01-09T03:16:56.615Z,147807.81
2019-01-09T03:18:02.984Z,147809.72
2019-01-09T03:19:09.330Z,147815.36
2019-01-09T03:20:15.400Z,147785.75
2019-01-09T03:21:22.548Z,147799.63
2019-01-09T03:22:28.252Z,147802.12
2019-01-09T03:23:34.321Z,147792.08
2019-01-09T03:24:40.703Z,147799.63
2019-01-09T03:25:48.035Z,147765.64
2019-01-09T03:26:54.414Z,147777.56
2019-01-09T03:28:00.782Z,147762.47
2019-01-09T03:29:06.745Z,147777.56
2019-01-09T03:30:13.264Z,147793.94
2019-01-09T03:31:19.296Z,147787.02
2019-01-09T03:32:25.693Z,147790.19
2019-01-09T03:33:32.116Z,147782.63
2019-01-09T03:34:38.428Z,147759.34
2019-01-09T03:35:44.831Z,147754.92
2019-01-09T03:36:51.147Z,147755.55
2019-01-09T03:37:57.486Z,147763.09
2019-01-09T03:39:03.228Z,147745.47
2019-01-09T03:40:09.551Z,147776.34
2019-01-09T03:41:15.663Z,147770.02
2019-01-09T03:42:21.703Z,147775.08
2019-01-09T03:43:28.065Z,147767.53
2019-01-09T03:44:34.074Z,147769.37
2019-01-09T03:45:40.111Z,147748.00
2019-01-09T03:46:46.145Z,147740.45
2019-01-09T03:47:52.543Z,147733.53
2019-01-09T03:48:58.957Z,147750.53
2019-01-09T03:50:04.637Z,147765.64
2019-01-09T03:51:11.962Z,147742.36
2019-01-09T03:52:19.014Z,147720.30
2019-01-09T03:53:26.235Z,147742.94
2019-01-09T03:54:32.721Z,147744.20
2019-01-09T03:55:39.542Z,147752.39
2019-01-09T03:56:46.047Z,147751.17
2019-01-09T03:57:52.475Z,147739.83
2019-01-09T03:58:58.893Z,147719.66
2019-01-09T04:00:04.392Z,147729.73
2019-01-09T04:01:10.784Z,147760.56
2019-01-09T04:02:17.421Z,147731.64
2019-01-09T04:03:24.462Z,147709.58
2019-01-09T04:04:30.824Z,147729.11
2019-01-09T04:05:36.981Z,147730.38
2019-01-09T04:06:43.486Z,147762.47
2019-01-09T04:07:49.862Z,147747.38
2019-01-09T04:08:56.239Z,147746.73
2019-01-09T04:10:02.635Z,147765.00
2019-01-09T04:11:08.667Z,147764.38
2019-01-09T04:12:15.030Z,147738.56
2019-01-09T04:13:21.072Z,147717.77
2019-01-09T04:14:27.088Z,147725.36
2019-01-09T04:15:33.051Z,147749.91
2019-01-09T04:16:39.429Z,147743.56
2019-01-09T04:17:45.786Z,147754.28
2019-01-09T04:18:52.259Z,147761.20
2019-01-09T04:19:58.673Z,147754.92
2019-01-09T04:21:05.067Z,147720.92
2019-01-09T04:22:11.411Z,147710.22
2019-01-09T04:23:17.816Z,147718.39
2019-01-09T04:24:24.187Z,147767.53
2019-01-09T04:25:30.572Z,147749.27
2019-01-09T04:26:36.955Z,147749.91
2019-01-09T04:27:43.457Z,147756.81
2019-01-09T04:28:49.763Z,147775.72
2019-01-09T04:29:55.815Z,147766.91
2019-01-09T04:31:02.188Z,147759.94
2019-01-09T04:32:08.801Z,147736.66
2019-01-09T04:33:15.389Z,147732.28
2019-01-09T04:34:22.491Z,147729.11
2019-01-09T04:35:28.848Z,147749.27
2019-01-09T04:36:35.276Z,147718.39
2019-01-09T04:37:41.801Z,147709.58
2019-01-09T04:38:48.536Z,147726.58
2019-01-09T04:39:54.962Z,147749.27
2019-01-09T04:41:01.278Z,147737.92
2019-01-09T04:42:07.679Z,147725.94
2019-01-09T04:43:14.034Z,147722.19
2019-01-09T04:44:20.407Z,147749.91
2019-01-09T04:45:26.416Z,147786.37
2019-01-09T04:46:32.857Z,147761.84
2019-01-09T04:47:39.209Z,147771.28
2019-01-09T04:48:45.571Z,147750.53
2019-01-09T04:49:51.934Z,147743.56
2019-01-09T04:50:58.275Z,147744.20
2019-01-09T04:52:04.631Z,147734.75
2019-01-09T04:53:10.989Z,147719.03
2019-01-09T04:54:18.093Z,147726.58
2019-01-09T04:55:24.816Z,147735.39
2019-01-09T04:56:31.210Z,147738.56
2019-01-09T04:57:37.557Z,147751.75
2019-01-09T04:58:43.889Z,147743.56
2019-01-09T04:59:50.258Z,147763.73
2019-01-09T05:00:56.582Z,147757.45
2019-01-09T05:02:02.982Z,147744.20
2019-01-09T05:03:09.440Z,147722.19
2019-01-09T05:04:15.459Z,147724.72
2019-01-09T05:05:21.801Z,147739.19
2019-01-09T05:06:28.153Z,147742.36
2019-01-09T05:07:34.594Z,147787.66
2019-01-09T05:08:40.554Z,147769.37
2019-01-09T05:09:46.979Z,147742.36
2019-01-09T05:10:53.340Z,147725.36
2019-01-09T05:11:59.693Z,147746.11
2019-01-09T05:13:06.031Z,147763.73
2019-01-09T05:14:12.359Z,147744.84
2019-01-09T05:15:20.440Z,147736.66
2019-01-09T05:16:27.416Z,147762.47
2019-01-09T05:17:33.769Z,147748.00
2019-01-09T05:18:40.149Z,147727.22
2019-01-09T05:19:46.457Z,147736.03
2019-01-09T05:20:52.762Z,147757.45
2019-01-09T05:21:58.990Z,147727.84
2019-01-09T05:23:05.346Z,147753.03
2019-01-09T05:24:11.698Z,147754.28
2019-01-09T05:25:18.055Z,147735.39
2019-01-09T05:26:24.398Z,147758.08
2019-01-09T05:27:30.762Z,147755.55
2019-01-09T05:28:37.218Z,147702.67
2019-01-09T05:29:43.593Z,147741.09
2019-01-09T05:30:50.000Z,147716.55
2019-01-09T05:31:56.428Z,147690.11
2019-01-09T05:33:02.764Z,147677.50
2019-01-09T05:34:09.174Z,147664.30
2019-01-09T05:35:15.742Z,147684.41
2019-01-09T05:36:22.773Z,147685.05
2019-01-09T05:37:29.742Z,147680.03
2019-01-09T05:38:36.133Z,147660.50
2019-01-09T05:39:42.443Z,147692.00
2019-01-09T05:40:49.258Z,147701.41
2019-01-09T05:41:56.448Z,147723.47
2019-01-09T05:43:02.806Z,147680.03
2019-01-09T05:44:09.175Z,147676.86
2019-01-09T05:45:16.060Z,147658.02
2019-01-09T05:46:22.448Z,147673.75
2019-01-09T05:47:28.985Z,147666.84
2019-01-09T05:48:35.289Z,147675.02
2019-01-09T05:49:41.669Z,147686.31
2019-01-09T05:50:48.095Z,147669.95
2019-01-09T05:51:54.310Z,147678.13
2019-01-09T05:53:00.696Z,147683.19
2019-01-09T05:54:07.083Z,147691.37
2019-01-09T05:55:13.480Z,147686.94
2019-01-09T05:56:20.598Z,147710.22
2019-01-09T05:57:27.796Z,147727.84
2019-01-09T05:58:34.707Z,147711.48
2019-01-09T05:59:41.138Z,147679.39
2019-01-09T06:00:47.485Z,147679.39
2019-01-09T06:01:53.895Z,147686.31
2019-01-09T06:03:00.309Z,147666.20
2019-01-09T06:04:06.666Z,147680.03
2019-01-09T06:05:12.705Z,147683.19
2019-01-09T06:06:19.111Z,147712.75
2019-01-09T06:07:25.548Z,147683.83
2019-01-09T06:08:31.992Z,147675.02
2019-01-09T06:09:38.367Z,147694.48
2019-01-09T06:10:44.744Z,147701.41
2019-01-09T06:11:51.135Z,147686.94
2019-01-09T06:12:57.519Z,147720.30
2019-01-09T06:14:03.580Z,147718.39
2019-01-09T06:15:10.485Z,147717.77
2019-01-09T06:16:16.867Z,147705.83
2019-01-09T06:17:23.251Z,147699.55
2019-01-09T06:18:29.561Z,147724.09
2019-01-09T06:19:36.297Z,147721.56
2019-01-09T06:20:42.788Z,147676.23
2019-01-09T06:21:49.211Z,147682.56
2019-01-09T06:22:55.608Z,147677.50
2019-01-09T06:24:02.031Z,147674.37
2019-01-09T06:25:08.368Z,147653.59
2019-01-09T06:26:14.727Z,147654.22
2019-01-09T06:27:21.121Z,147653.59
2019-01-09T06:28:27.265Z,147675.02
2019-01-09T06:29:33.659Z,147654.22
2019-01-09T06:30:40.148Z,147645.41
2019-01-09T06:31:46.145Z,147674.37
2019-01-09T06:32:52.576Z,147682.56
2019-01-09T06:33:58.945Z,147678.13
2019-01-09T06:35:04.965Z,147689.47
2019-01-09T06:36:11.010Z,147688.84
2019-01-09T06:37:17.107Z,147674.37
2019-01-09T06:38:24.361Z,147676.86
2019-01-09T06:39:30.409Z,147687.58
2019-01-09T06:40:36.729Z,147675.59
2019-01-09T06:41:43.107Z,147676.23
2019-01-09T06:42:49.475Z,147664.30
2019-01-09T06:43:55.837Z,147668.05
2019-01-09T06:45:02.205Z,147697.02
2019-01-09T06:46:08.616Z,147705.83
2019-01-09T06:47:14.707Z,147683.83
2019-01-09T06:48:21.134Z,147681.30
2019-01-09T06:49:27.166Z,147681.30
2019-01-09T06:50:34.332Z,147683.83
2019-01-09T06:51:40.732Z,147698.92
2019-01-09T06:52:47.157Z,147710.22
2019-01-09T06:53:53.621Z,147700.19
2019-01-09T06:55:00.302Z,147705.83
2019-01-09T06:56:06.866Z,147698.28
2019-01-09T06:57:13.327Z,147731.64
2019-01-09T06:58:20.305Z,147712.75
2019-01-09T06:59:26.625Z,147708.36
2019-01-09T07:00:33.152Z,147692.00
2019-01-09T07:01:40.241Z,147693.86
2019-01-09T07:02:47.211Z,147667.41
2019-01-09T07:03:56.573Z,147686.31
2019-01-09T07:05:03.025Z,147712.13
2019-01-09T07:06:09.464Z,147717.77
2019-01-09T07:07:16.074Z,147676.86
2019-01-09T07:08:22.190Z,147681.30
2019-01-09T07:09:28.643Z,147700.77
2019-01-09T07:10:35.078Z,147673.11
2019-01-09T07:11:41.481Z,147663.03
2019-01-09T07:12:47.579Z,147698.28
2019-01-09T07:13:54.068Z,147692.59
2019-01-09T07:15:00.506Z,147680.66
2019-01-09T07:16:06.833Z,147674.37
2019-01-09T07:17:12.891Z,147672.48
2019-01-09T07:18:19.286Z,147702.67
2019-01-09T07:19:25.748Z,147689.47
2019-01-09T07:20:32.218Z,147695.75
2019-01-09T07:21:45.422Z,147739.19
2019-01-09T07:22:46.187Z,147728.47
2019-01-09T07:23:53.136Z,147729.73
2019-01-09T07:24:59.679Z,147715.91
2019-01-09T07:26:05.742Z,147697.66
2019-01-09T07:27:12.181Z,147684.41
2019-01-09T07:28:18.563Z,147724.72
2019-01-09T07:29:24.910Z,147705.83
2019-01-09T07:30:31.612Z,147698.92
2019-01-09T07:31:38.016Z,147690.73
2019-01-09T07:32:44.424Z,147737.92
2019-01-09T07:33:50.437Z,147706.47
2019-01-09T07:34:56.944Z,147705.83
2019-01-09T07:36:02.974Z,147721.56
2019-01-09T07:37:09.314Z,147734.17
2019-01-09T07:38:15.695Z,147688.20
2019-01-09T07:39:22.100Z,147687.58
2019-01-09T07:40:30.285Z,147695.13
2019-01-09T07:41:36.692Z,147697.66
2019-01-09T07:42:43.076Z,147714.02
2019-01-09T07:43:49.496Z,147753.66
2019-01-09T07:44:55.852Z,147761.20
2019-01-09T07:46:02.871Z,147768.75
2019-01-09T07:47:09.893Z,147742.94
2019-01-09T07:48:16.371Z,147739.83
2019-01-09T07:49:22.781Z,147747.38
2019-01-09T07:50:29.220Z,147725.36
2019-01-09T07:51:35.560Z,147739.83
2019-01-09T07:52:42.025Z,147728.47
2019-01-09T07:53:48.161Z,147754.28
2019-01-09T07:54:54.547Z,147764.38
2019-01-09T07:56:00.707Z,147771.92
2019-01-09T07:57:07.114Z,147773.19
2019-01-09T07:58:13.524Z,147783.91
2019-01-09T07:59:19.964Z,147782.63
2019-01-09T08:00:26.369Z,147765.00
2019-01-09T08:01:32.899Z,147770.66
2019-01-09T08:02:39.242Z,147791.45
2019-01-09T08:03:45.672Z,147775.08
2019-01-09T08:04:52.091Z,147783.91
2019-01-09T08:05:59.492Z,147803.37
2019-01-09T08:07:05.880Z,147787.02
2019-01-09T08:08:12.327Z,147786.37
2019-01-09T08:09:18.760Z,147767.53
2019-01-09T08:10:25.194Z,147767.53
2019-01-09T08:11:31.587Z,147765.00
2019-01-09T08:12:37.934Z,147770.02
2019-01-09T08:13:43.984Z,147760.56
2019-01-09T08:14:50.110Z,147771.92
2019-01-09T08:15:56.453Z,147780.09
2019-01-09T08:17:02.803Z,147790.19
2019-01-09T08:18:08.791Z,147792.72
2019-01-09T08:19:15.114Z,147832.38
2019-01-09T08:20:21.119Z,147816.00
2019-01-09T08:21:27.454Z,147829.83
2019-01-09T08:22:33.836Z,147807.19
2019-01-09T08:23:40.242Z,147825.44
2019-01-09T08:24:46.564Z,147796.47
2019-01-09T08:25:52.906Z,147820.38
2019-01-09T08:26:59.302Z,147785.75
2019-01-09T08:28:05.471Z,147821.66
2019-01-09T08:29:11.888Z,147803.37
2019-01-09T08:30:18.272Z,147790.19
2019-01-09T08:31:24.617Z,147794.56
2019-01-09T08:32:31.012Z,147827.30
2019-01-09T08:33:37.413Z,147855.02
2019-01-09T08:34:43.471Z,147828.56
2019-01-09T08:35:49.816Z,147788.28
2019-01-09T08:36:56.121Z,147808.44
2019-01-09T08:38:03.123Z,147801.53
2019-01-09T08:39:08.508Z,147804.02
2019-01-09T08:40:14.879Z,147819.75
2019-01-09T08:41:20.948Z,147825.44
2019-01-09T08:42:27.349Z,147818.53
2019-01-09T08:43:33.714Z,147850.63
2019-01-09T08:44:40.108Z,147865.09
2019-01-09T08:45:46.184Z,147858.19
2019-01-09T08:46:52.580Z,147850.00
2019-01-09T08:47:58.904Z,147848.73
2019-01-09T08:49:05.267Z,147838.66
2019-01-09T08:50:12.418Z,147846.83
2019-01-09T08:51:19.479Z,147823.55
2019-01-09T08:52:25.816Z,147793.34
2019-01-09T08:53:32.159Z,147801.53
2019-01-09T08:54:38.581Z,147818.53
2019-01-09T08:55:44.994Z,147814.73
2019-01-09T08:56:51.346Z,147848.73
2019-01-09T08:57:57.678Z,147800.91
2019-01-09T08:59:04.054Z,147839.92
2019-01-09T09:00:09.713Z,147819.11
2019-01-09T09:01:16.076Z,147835.48
2019-01-09T09:02:22.409Z,147834.89
2019-01-09T09:03:28.771Z,147838.02
2019-01-09T09:04:35.119Z,147809.72
2019-01-09T09:05:41.489Z,147826.08
2019-01-09T09:06:47.790Z,147819.75
2019-01-09T09:07:54.321Z,147810.30
2019-01-09T09:08:59.951Z,147837.37
2019-01-09T09:10:05.618Z,147800.27
2019-01-09T09:11:11.603Z,147807.81
2019-01-09T09:12:17.942Z,147834.27
2019-01-09T09:13:30.945Z,147856.28
2019-01-09T09:14:37.287Z,147852.48
2019-01-09T09:15:43.605Z,147867.00
2019-01-09T09:16:50.011Z,147829.83
2019-01-09T09:17:55.599Z,147825.44
2019-01-09T09:19:02.117Z,147805.92
2019-01-09T09:20:07.757Z,147798.36
2019-01-09T09:21:14.063Z,147817.91
2019-01-09T09:22:20.405Z,147789.55
2019-01-09T09:23:26.719Z,147795.19
2019-01-09T09:24:33.095Z,147783.91
2019-01-09T09:25:39.429Z,147807.81
2019-01-09T09:26:45.835Z,147814.09
2019-01-09T09:27:52.189Z,147795.83
2019-01-09T09:28:58.516Z,147828.56
2019-01-09T09:30:06.839Z,147826.72
2019-01-09T09:31:13.240Z,147799.63
2019-01-09T09:32:19.560Z,147834.27
2019-01-09T09:33:25.894Z,147800.91
2019-01-09T09:34:32.268Z,147801.53
2019-01-09T09:35:38.597Z,147799.00
2019-01-09T09:36:44.916Z,147785.75
2019-01-09T09:37:51.272Z,147803.37
2019-01-09T09:38:57.664Z,147791.45
2019-01-09T09:40:03.402Z,147789.55
2019-01-09T09:41:09.783Z,147788.28
2019-01-09T09:42:16.122Z,147809.08
2019-01-09T09:43:23.727Z,147810.94
2019-01-09T09:44:28.791Z,147849.38
2019-01-09T09:45:35.201Z,147821.02
2019-01-09T09:46:41.614Z,147831.09
2019-01-09T09:47:47.997Z,147847.47
2019-01-09T09:48:54.837Z,147808.44
2019-01-09T09:50:01.210Z,147804.02
2019-01-09T09:51:07.567Z,147788.28
2019-01-09T09:52:13.891Z,147789.55
2019-01-09T09:53:20.978Z,147776.34
2019-01-09T09:54:29.268Z,147769.37
2019-01-09T09:55:36.029Z,147792.08
2019-01-09T09:56:42.366Z,147805.92
2019-01-09T09:57:48.712Z,147799.63
2019-01-09T09:58:55.054Z,147816.00
2019-01-09T10:00:01.433Z,147815.36
2019-01-09T10:01:07.782Z,147853.13
2019-01-09T10:02:13.743Z,147819.75
2019-01-09T10:03:20.105Z,147827.94
2019-01-09T10:04:26.448Z,147801.53
2019-01-09T10:05:32.807Z,147785.13
2019-01-09T10:06:39.146Z,147804.66
2019-01-09T10:07:45.117Z,147801.53
2019-01-09T10:08:51.458Z,147801.53
2019-01-09T10:09:57.839Z,147793.34
2019-01-09T10:11:03.491Z,147799.63
2019-01-09T10:12:09.827Z,147779.47
2019-01-09T10:13:16.158Z,147782.63
2019-01-09T10:14:22.656Z,147825.44
2019-01-09T10:15:29.471Z,147854.39
2019-01-09T10:16:36.310Z,147846.20
2019-01-09T10:17:42.305Z,147826.08
2019-01-09T10:18:48.646Z,147825.44
2019-01-09T10:19:55.008Z,147826.72
2019-01-09T10:21:01.308Z,147830.47
2019-01-09T10:22:07.280Z,147841.81
2019-01-09T10:23:13.590Z,147844.94
2019-01-09T10:24:19.936Z,147840.55
2019-01-09T10:25:26.284Z,147851.91
2019-01-09T10:26:32.722Z,147824.81
2019-01-09T10:27:39.011Z,147850.00
2019-01-09T10:28:45.385Z,147799.00
2019-01-09T10:29:51.757Z,147809.08
2019-01-09T10:30:58.110Z,147798.36
2019-01-09T10:32:03.763Z,147790.81
2019-01-09T10:33:10.278Z,147810.94
2019-01-09T10:34:16.653Z,147803.37
2019-01-09T10:35:22.407Z,147823.55
2019-01-09T10:36:29.649Z,147814.09
2019-01-09T10:37:36.092Z,147818.53
2019-01-09T10:38:44.472Z,147835.48
2019-01-09T10:39:48.951Z,147834.27
2019-01-09T10:40:55.046Z,147826.72
2019-01-09T10:42:01.972Z,147822.28
2019-01-09T10:43:08.825Z,147836.75
2019-01-09T10:44:18.896Z,147851.27
2019-01-09T10:45:20.947Z,147836.75
2019-01-09T10:46:27.271Z,147804.02
2019-01-09T10:47:33.575Z,147828.56
2019-01-09T10:48:39.897Z,147833.00
2019-01-09T10:49:46.264Z,147826.08
2019-01-09T10:50:52.959Z,147820.38
2019-01-09T10:51:59.337Z,147797.09
2019-01-09T10:53:05.661Z,147792.72
2019-01-09T10:54:12.018Z,147810.94
2019-01-09T10:55:17.769Z,147783.91
2019-01-09T10:56:24.119Z,147795.19
2019-01-09T10:57:31.175Z,147792.08
2019-01-09T10:58:38.233Z,147774.45
2019-01-09T10:59:44.637Z,147793.34
2019-01-09T11:00:50.789Z,147776.34
2019-01-09T11:01:57.106Z,147796.47
2019-01-09T11:03:02.797Z,147804.66
2019-01-09T11:04:09.167Z,147833.63
2019-01-09T11:05:14.937Z,147815.36
2019-01-09T11:06:21.297Z,147810.30
2019-01-09T11:07:27.692Z,147804.66
2019-01-09T11:08:34.049Z,147792.72
2019-01-09T11:09:40.443Z,147787.66
2019-01-09T11:10:46.826Z,147793.34
2019-01-09T11:11:53.176Z,147809.08
2019-01-09T11:12:59.525Z,147798.36
2019-01-09T11:14:05.249Z,147836.12
2019-01-09T11:15:10.996Z,147812.20
2019-01-09T11:16:17.356Z,147807.81
2019-01-09T11:17:23.690Z,147827.30
2019-01-09T11:18:30.895Z,147855.66
2019-01-09T11:19:38.808Z,147826.08
2019-01-09T11:20:44.804Z,147833.63
2019-01-09T11:21:51.162Z,147877.09
2019-01-09T11:22:57.094Z,147826.72
2019-01-09T11:24:03.437Z,147855.66
2019-01-09T11:25:09.095Z,147884.64
2019-01-09T11:26:15.470Z,147861.94
2019-01-09T11:27:21.936Z,147867.00
2019-01-09T11:28:28.292Z,147834.27
2019-01-09T11:29:34.634Z,147843.72
2019-01-09T11:30:40.963Z,147816.00
2019-01-09T11:31:47.353Z,147833.63
2019-01-09T11:32:53.695Z,147824.81
2019-01-09T11:34:00.028Z,147817.27
2019-01-09T11:35:06.002Z,147825.44
2019-01-09T11:36:12.449Z,147794.56
2019-01-09T11:37:18.799Z,147794.56
2019-01-09T11:38:26.122Z,147778.84
2019-01-09T11:39:33.102Z,147758.08
2019-01-09T11:40:40.140Z,147792.08
2019-01-09T11:41:46.566Z,147795.19
2019-01-09T11:42:52.631Z,147780.73
2019-01-09T11:43:59.011Z,147774.45
2019-01-09T11:45:04.670Z,147768.75
2019-01-09T11:46:11.051Z,147776.34
2019-01-09T11:47:17.434Z,147771.28
2019-01-09T11:48:23.831Z,147772.55
2019-01-09T11:49:30.218Z,147785.13
2019-01-09T11:50:36.221Z,147777.56
2019-01-09T11:51:42.646Z,147770.66
2019-01-09T11:52:49.070Z,147751.75
2019-01-09T11:53:55.591Z,147754.92
2019-01-09T11:55:02.931Z,147769.37
2019-01-09T11:56:09.053Z,147742.36
2019-01-09T11:57:15.407Z,147740.45
2019-01-09T11:58:21.818Z,147778.84
2019-01-09T11:59:28.240Z,147730.38
2019-01-09T12:00:35.248Z,147734.75
2019-01-09T12:01:41.912Z,147744.84
2019-01-09T12:02:47.917Z,147748.00
2019-01-09T12:03:54.442Z,147746.11
2019-01-09T12:05:00.811Z,147746.11
2019-01-09T12:06:07.145Z,147741.09
2019-01-09T12:07:13.528Z,147764.38
2019-01-09T12:08:19.614Z,147764.38
2019-01-09T12:09:26.028Z,147774.45
2019-01-09T12:10:32.416Z,147769.37
2019-01-09T12:11:38.539Z,147792.72
2019-01-09T12:12:44.221Z,147780.73
2019-01-09T12:13:50.602Z,147802.12
2019-01-09T12:14:56.942Z,147758.08
2019-01-09T12:16:07.922Z,147785.75
2019-01-09T12:17:09.213Z,147774.45
2019-01-09T12:18:15.702Z,147770.02
2019-01-09T12:19:22.551Z,147774.45
2019-01-09T12:20:28.937Z,147785.75
2019-01-09T12:21:35.431Z,147790.19
2019-01-09T12:22:41.797Z,147773.81
2019-01-09T12:23:48.345Z,147780.09
2019-01-09T12:24:55.101Z,147765.00
2019-01-09T12:26:01.614Z,147760.56
2019-01-09T12:27:07.981Z,147768.75
2019-01-09T12:28:14.452Z,147776.94
2019-01-09T12:29:20.760Z,147763.09
2019-01-09T12:30:26.454Z,147756.81
2019-01-09T12:31:32.864Z,147754.92
2019-01-09T12:32:39.253Z,147749.91
2019-01-09T12:33:45.652Z,147759.34
2019-01-09T12:34:51.983Z,147753.03
2019-01-09T12:35:58.382Z,147749.27
2019-01-09T12:37:04.464Z,147756.81
2019-01-09T12:38:10.926Z,147737.92
2019-01-09T12:39:17.328Z,147732.28
2019-01-09T12:40:23.799Z,147738.56
2019-01-09T12:41:29.868Z,147731.00
2019-01-09T12:42:36.493Z,147737.30
2019-01-09T12:43:43.851Z,147723.47
2019-01-09T12:44:50.236Z,147719.03
2019-01-09T12:45:56.567Z,147715.91
2019-01-09T12:47:02.942Z,147741.09
2019-01-09T12:48:09.355Z,147727.22
2019-01-09T12:49:15.821Z,147715.28
2019-01-09T12:50:21.545Z,147703.31
2019-01-09T12:51:27.972Z,147701.41
2019-01-09T12:52:34.304Z,147690.73
2019-01-09T12:53:40.699Z,147678.13
2019-01-09T12:54:47.077Z,147691.37
2019-01-09T12:55:53.435Z,147695.13
2019-01-09T12:56:59.851Z,147705.83
2019-01-09T12:58:06.239Z,147710.22
2019-01-09T12:59:21.423Z,147706.47
2019-01-09T13:00:21.161Z,147705.83
2019-01-09T13:01:27.531Z,147710.22
2019-01-09T13:02:33.890Z,147715.28
2019-01-09T13:03:40.280Z,147715.28
2019-01-09T13:04:46.620Z,147710.22
2019-01-09T13:05:52.993Z,147687.58
2019-01-09T13:06:59.414Z,147680.66
2019-01-09T13:08:05.730Z,147666.84
2019-01-09T13:09:12.044Z,147694.48